Time;durP1;ratioP1;P1;durP2;ratioP2;P2;SDS_P1;SDS_P2;PMS_P1;PMS_P2;Temp;Humidity;BMP_temperature;BMP_pressure;BME280_temperature;BME280_humidity;BME280_pressure;Samples;Min_cycle;Max_cycle;Signal;HPM_P1;HPM_P2
2021/11/07 00:00:55;;;;;;;;;27.00;27.00;;;;;8.26;83.91;102291.03;5052928;28;11509;-70
2021/11/07 00:04:21;;;;;;;;;30.00;29.50;;;;;8.28;83.57;102283.28;5053693;28;11596;-72
2021/11/07 00:07:23;;;;;;;;;23.75;23.75;;;;;8.14;83.18;102287.72;5054440;28;11639;-69
2021/11/07 00:16:20;;;;;;;;;19.75;18.50;;;;;8.18;82.50;102280.56;5053332;28;11488;-72
2021/11/07 00:19:41;;;;;;;;;16.25;16.00;;;;;8.20;82.39;102283.84;5053315;28;11509;-72
2021/11/07 00:25:47;;;;;;;;;24.00;24.00;;;;;8.03;83.28;102276.69;5052865;28;11526;-72
2021/11/07 00:28:48;;;;;;;;;28.75;27.75;;;;;8.05;84.08;102276.41;5052945;28;11674;-70
2021/11/07 00:38:01;;;;;;;;;24.75;23.75;;;;;7.90;83.81;102285.53;5052992;28;11544;-70
2021/11/07 00:44:56;;;;;;;;;25.75;25.75;;;;;7.91;83.58;102284.41;5052991;28;11629;-69
2021/11/07 00:50:40;;;;;;;;;10.50;10.25;;;;;7.84;83.35;102292.13;5052921;28;11543;-70
2021/11/07 00:59:37;;;;;;;;;26.00;25.75;;;;;7.74;83.47;102287.44;5032699;28;11683;-70
2021/11/07 01:02:37;;;;;;;;;28.00;27.75;;;;;7.71;84.28;102282.44;5032530;28;11517;-70
2021/11/07 01:05:34;;;;;;;;;22.00;22.00;;;;;7.67;84.52;102286.88;5032665;28;11560;-70
2021/11/07 01:08:29;;;;;;;;;28.00;27.50;;;;;7.72;83.74;102278.59;5032362;28;11534;-70
2021/11/07 01:11:26;;;;;;;;;23.75;23.75;;;;;7.65;83.08;102285.47;5044246;28;11547;-70
2021/11/07 01:14:21;;;;;;;;;32.75;28.00;;;;;7.64;83.37;102278.31;5033293;28;12300;-70
2021/11/07 01:17:17;;;;;;;;;30.00;27.00;;;;;7.52;83.78;102284.06;5049727;28;11582;-70
2021/11/07 01:20:14;;;;;;;;;29.00;24.75;;;;;7.44;84.42;102290.94;5052317;28;11533;-70
2021/11/07 01:23:18;;;;;;;;;28.50;27.00;;;;;7.43;84.58;102286.50;5052133;28;11510;-70
2021/11/07 01:26:31;;;;;;;;;23.50;23.50;;;;;7.53;84.15;102292.06;5031447;28;11539;-70
2021/11/07 01:29:27;;;;;;;;;26.25;26.25;;;;;7.57;84.07;102299.75;5031944;28;11630;-70
2021/11/07 01:32:25;;;;;;;;;24.75;22.50;;;;;7.65;83.40;102296.47;5032352;28;12264;-70
2021/11/07 01:35:25;;;;;;;;;22.00;22.00;;;;;7.54;83.66;102292.88;5032364;28;11534;-70
2021/11/07 01:38:36;;;;;;;;;26.50;26.50;;;;;7.59;84.02;102297.56;5033506;28;11537;-70
2021/11/07 01:45:21;;;;;;;;;25.75;25.75;;;;;7.61;83.79;102290.69;4997381;28;11656;-70
2021/11/07 01:48:20;;;;;;;;;27.50;27.00;;;;;7.65;83.97;102288.22;5038328;28;11520;-70
2021/11/07 01:51:16;;;;;;;;;27.50;26.00;;;;;7.48;83.47;102289.28;5051978;28;11526;-70
2021/11/07 01:54:27;;;;;;;;;27.25;26.50;;;;;7.40;84.02;102284.31;5052003;28;11601;-70
2021/11/07 01:57:29;;;;;;;;;27.25;24.75;;;;;7.42;84.35;102278.53;5038614;28;11597;-70
2021/11/07 02:00:28;;;;;;;;;23.25;23.25;;;;;7.43;84.16;102289.25;5038239;28;12085;-70
2021/11/07 02:03:25;;;;;;;;;28.50;28.00;;;;;7.36;83.56;102291.47;5051892;28;11515;-70
2021/11/07 02:06:20;;;;;;;;;26.75;25.75;;;;;7.38;83.97;102289.25;5052391;28;11737;-69
2021/11/07 02:09:16;;;;;;;;;26.00;25.50;;;;;7.23;83.99;102300.22;5051574;28;11603;-70
2021/11/07 02:12:12;;;;;;;;;27.75;27.75;;;;;7.24;83.98;102291.69;5051654;28;11573;-70
2021/11/07 02:15:14;;;;;;;;;25.50;25.50;;;;;7.18;84.29;102301.00;5051658;28;11570;-70
2021/11/07 02:18:11;;;;;;;;;17.00;16.25;;;;;7.28;84.18;102305.72;5051398;28;11553;-70
2021/11/07 02:21:06;;;;;;;;;26.00;26.00;;;;;7.08;84.23;102305.66;5052649;28;12342;-70
2021/11/07 02:24:02;;;;;;;;;28.75;28.75;;;;;7.16;84.02;102305.13;5055531;28;11537;-70
2021/11/07 02:27:01;;;;;;;;;22.00;21.50;;;;;7.05;84.38;102293.25;5055604;28;11606;-70
2021/11/07 02:29:57;;;;;;;;;26.25;25.75;;;;;7.02;83.88;102306.72;5055328;28;11598;-70
2021/11/07 02:32:53;;;;;;;;;27.50;27.50;;;;;7.06;83.73;102305.09;5055659;28;11562;-70
2021/11/07 02:35:48;;;;;;;;;25.75;25.75;;;;;7.11;83.30;102307.84;5055314;28;12282;-70
2021/11/07 02:38:46;;;;;;;;;25.50;25.50;;;;;7.00;83.44;102309.75;5042692;28;11543;-69
2021/11/07 02:41:43;;;;;;;;;31.50;31.00;;;;;7.00;83.19;102309.75;5055283;28;11611;-69
2021/11/07 02:44:44;;;;;;;;;25.00;25.00;;;;;6.95;83.50;102315.22;5055096;28;11649;-70
2021/11/07 02:47:40;;;;;;;;;30.25;30.25;;;;;6.73;83.94;102323.59;5054956;28;11636;-69
2021/11/07 02:50:36;;;;;;;;;41.00;39.50;;;;;6.79;83.90;102319.78;5055504;28;11506;-69
2021/11/07 02:53:32;;;;;;;;;65.00;52.75;;;;;6.68;83.87;102318.09;5055113;28;11068;-70
2021/11/07 02:56:28;;;;;;;;;63.50;52.50;;;;;6.75;83.92;102320.56;5054899;28;11544;-70
2021/11/07 02:59:27;;;;;;;;;60.00;48.75;;;;;6.62;84.08;102316.41;5066362;28;11569;-69
2021/11/07 03:02:24;;;;;;;;;40.00;34.75;;;;;6.58;83.77;102326.25;5054987;28;11558;-70
2021/11/07 03:05:19;;;;;;;;;33.50;32.50;;;;;6.53;84.64;102324.31;5054735;28;11594;-70
2021/11/07 03:08:15;;;;;;;;;30.00;30.00;;;;;6.43;84.79;102329.72;5041342;28;11617;-70
2021/11/07 03:11:11;;;;;;;;;61.75;51.50;;;;;6.37;84.99;102330.78;5054710;28;11645;-70
2021/11/07 03:14:09;;;;;;;;;46.75;43.50;;;;;6.23;84.88;102330.38;5054710;28;11528;-70
2021/11/07 03:17:06;;;;;;;;;46.50;41.75;;;;;6.29;84.95;102326.59;5066100;28;11559;-71
2021/11/07 03:20:02;;;;;;;;;39.25;36.00;;;;;6.36;84.16;102320.84;5055188;28;11951;-70
2021/11/07 03:22:58;;;;;;;;;41.75;38.75;;;;;6.31;83.70;102318.09;5054348;28;11547;-70
2021/11/07 03:26:03;;;;;;;;;31.25;31.00;;;;;6.32;83.29;102317.00;5055119;28;11547;-70
2021/11/07 03:29:03;;;;;;;;;34.00;33.00;;;;;6.13;83.92;102319.28;5054253;28;11549;-70
2021/11/07 03:32:14;;;;;;;;;45.50;42.25;;;;;6.12;83.95;102317.63;5053379;28;12439;-70
2021/11/07 03:35:16;;;;;;;;;25.50;25.50;;;;;6.11;84.04;102329.72;5055001;28;11572;-70
2021/11/07 03:38:12;;;;;;;;;38.75;34.25;;;;;6.01;83.74;102333.22;5054175;28;11548;-71
2021/11/07 03:41:08;;;;;;;;;28.00;27.00;;;;;6.01;83.91;102333.22;5054175;28;11698;-70
2021/11/07 03:44:04;;;;;;;;;30.00;29.50;;;;;5.89;84.31;102338.00;5054251;28;11526;-70
2021/11/07 03:47:02;;;;;;;;;48.50;44.50;;;;;5.75;84.23;102332.09;5053814;28;11532;-70
2021/11/07 03:49:58;;;;;;;;;61.00;51.50;;;;;5.75;84.38;102340.34;5053955;28;11541;-70
2021/11/07 03:52:54;;;;;;;;;65.25;53.75;;;;;5.69;84.97;102338.63;5053842;28;11543;-70
2021/11/07 03:55:50;;;;;;;;;53.25;45.75;;;;;5.70;84.88;102332.03;5046361;28;11522;-70
2021/11/07 03:58:45;;;;;;;;;50.50;44.75;;;;;5.74;84.70;102335.91;5040565;28;12359;-70
2021/11/07 04:01:42;;;;;;;;;54.25;46.00;;;;;5.91;83.72;102332.28;5054531;28;11534;-70
2021/11/07 04:04:39;;;;;;;;;45.75;41.75;;;;;5.62;83.83;102329.75;5053727;28;11563;-70
2021/11/07 04:07:35;;;;;;;;;44.75;42.25;;;;;5.80;83.46;102326.66;5053070;28;11778;-70
2021/11/07 04:10:31;;;;;;;;;34.50;34.50;;;;;5.95;83.29;102316.94;5053595;28;11545;-70
2021/11/07 04:13:27;;;;;;;;;35.25;35.25;;;;;6.01;82.84;102321.41;5053608;28;12277;-71
2021/11/07 04:16:23;;;;;;;;;33.75;33.75;;;;;5.71;82.54;102325.47;5040310;28;11647;-70
2021/11/07 04:19:18;;;;;;;;;35.00;35.00;;;;;5.61;83.79;102319.88;5053414;28;11544;-70
2021/11/07 04:22:14;;;;;;;;;28.50;28.50;;;;;5.57;83.03;102325.03;5053374;28;11542;-70
2021/11/07 04:25:10;;;;;;;;;33.25;33.25;;;;;5.56;83.57;102323.38;5053299;28;11512;-70
2021/11/07 04:28:06;;;;;;;;;35.75;29.75;;;;;5.46;83.67;102334.25;5053216;28;11544;-72
2021/11/07 04:31:02;;;;;;;;;33.25;33.25;;;;;5.43;84.37;102325.69;5053327;28;12250;-72
2021/11/07 04:33:58;;;;;;;;;32.25;31.00;;;;;5.41;83.89;102323.19;5052229;28;11543;-72
2021/11/07 04:36:54;;;;;;;;;40.25;37.75;;;;;5.40;84.14;102326.22;5039247;28;11521;-72
2021/11/07 04:39:50;;;;;;;;;39.50;36.25;;;;;5.50;84.03;102334.56;5053239;28;11603;-72
2021/11/07 04:42:46;;;;;;;;;34.50;33.00;;;;;5.41;83.24;102339.66;5051433;28;11575;-72
2021/11/07 04:45:42;;;;;;;;;34.50;33.00;;;;;5.28;83.95;102332.63;5052416;28;12323;-72
2021/11/07 04:48:37;;;;;;;;;35.75;32.75;;;;;5.21;84.65;102332.03;5052305;28;11527;-71
2021/11/07 04:51:33;;;;;;;;;31.75;28.75;;;;;5.30;84.43;102333.25;5052672;28;11541;-72
2021/11/07 04:54:29;;;;;;;;;37.00;37.00;;;;;5.43;83.98;102337.50;5048274;28;11640;-71
2021/11/07 04:57:25;;;;;;;;;39.75;38.50;;;;;5.24;83.83;102338.91;5051598;28;11640;-71
2021/11/07 05:00:23;;;;;;;;;31.50;27.25;;;;;5.31;84.10;102342.28;5039160;28;11569;-71
2021/11/07 05:03:18;;;;;;;;;53.00;43.00;;;;;5.34;84.26;102352.75;5053007;28;11537;-71
2021/11/07 05:06:14;;;;;;;;;47.25;41.25;;;;;5.19;84.77;102356.13;5052096;28;11555;-71
2021/11/07 05:09:10;;;;;;;;;58.00;48.50;;;;;5.22;85.17;102363.88;5038939;28;11564;-71
2021/11/07 05:12:06;;;;;;;;;44.75;42.50;;;;;5.28;84.67;102356.50;5052250;28;11567;-71
2021/11/07 05:15:03;;;;;;;;;48.00;42.00;;;;;5.25;85.13;102366.09;5051963;28;11660;-70
2021/11/07 05:17:58;;;;;;;;;49.50;44.50;;;;;5.37;85.48;102356.88;5051581;28;11618;-70
2021/11/07 05:20:54;;;;;;;;;51.25;43.00;;;;;5.30;85.47;102354.34;5051747;28;11556;-71
2021/11/07 05:23:50;;;;;;;;;49.50;44.25;;;;;5.55;85.48;102349.16;5051028;28;11523;-70
2021/11/07 05:27:01;;;;;;;;;47.75;43.75;;;;;5.59;85.41;102366.78;5040403;28;11518;-70
2021/11/07 05:29:56;;;;;;;;;45.50;42.25;;;;;5.59;85.82;102366.78;5051845;28;11562;-70
2021/11/07 05:32:52;;;;;;;;;42.50;40.75;;;;;5.69;86.26;102370.75;5053060;28;11575;-71
2021/11/07 05:35:48;;;;;;;;;55.75;44.75;;;;;5.74;86.18;102368.84;5051754;28;11562;-71
2021/11/07 05:38:43;;;;;;;;;54.00;47.25;;;;;5.83;86.54;102352.78;5034305;28;11549;-71
2021/11/07 05:41:39;;;;;;;;;33.00;30.25;;;;;5.94;86.46;102356.47;5038471;28;11564;-70
2021/11/07 05:44:35;;;;;;;;;57.67;50.67;;;;;5.91;86.74;102357.00;5046356;28;11567;-70
2021/11/07 05:47:31;;;;;;;;;43.25;40.75;;;;;6.03;86.73;102357.66;5050871;28;11612;-70
2021/11/07 05:50:27;;;;;;;;;34.00;34.00;;;;;6.23;86.70;102343.31;5051667;28;11740;-71
2021/11/07 05:53:24;;;;;;;;;39.00;36.50;;;;;6.41;85.67;102340.97;5051328;28;12313;-71
2021/11/07 05:56:19;;;;;;;;;36.50;36.50;;;;;6.47;86.09;102354.78;5052382;28;11593;-72
2021/11/07 05:59:15;;;;;;;;;31.00;31.00;;;;;6.56;85.54;102347.69;5051336;28;12233;-71
2021/11/07 06:02:10;;;;;;;;;31.75;31.75;;;;;6.68;85.79;102353.84;5052807;28;11567;-71
2021/11/07 06:05:06;;;;;;;;;37.75;35.25;;;;;6.78;85.20;102355.81;5041349;28;11775;-71
2021/11/07 06:08:03;;;;;;;;;34.00;34.00;;;;;6.94;85.06;102360.31;5051538;28;11604;-70
2021/11/07 06:10:58;;;;;;;;;34.50;34.50;;;;;7.08;84.64;102369.75;5051486;28;11492;-70
2021/11/07 06:13:55;;;;;;;;;35.50;34.25;;;;;7.20;84.84;102377.78;5038181;28;11620;-72
2021/11/07 06:16:51;;;;;;;;;36.50;35.25;;;;;7.34;83.84;102373.47;5035328;28;11523;-71
2021/11/07 06:19:46;;;;;;;;;38.00;34.00;;;;;7.49;83.61;102381.78;5045381;28;11514;-71
2021/11/07 06:22:42;;;;;;;;;26.25;26.25;;;;;7.60;83.30;102379.91;5051606;28;11761;-71
2021/11/07 06:25:38;;;;;;;;;28.75;27.50;;;;;7.76;82.73;102386.31;5050841;28;11574;-71
2021/11/07 06:28:34;;;;;;;;;30.75;30.75;;;;;7.94;81.16;102379.47;5050899;28;11521;-71
2021/11/07 06:31:30;;;;;;;;;28.75;28.75;;;;;8.08;81.54;102384.19;5051137;28;11532;-70
2021/11/07 06:34:27;;;;;;;;;30.50;30.50;;;;;8.37;79.90;102388.38;5037382;28;11522;-71
2021/11/07 06:37:23;;;;;;;;;27.00;27.00;;;;;8.58;78.42;102396.38;5051693;28;11515;-71
2021/11/07 06:40:18;;;;;;;;;26.25;25.50;;;;;8.77;77.09;102390.31;5050718;28;11505;-71
2021/11/07 06:43:14;;;;;;;;;27.75;26.75;;;;;8.91;76.24;102391.41;5044141;28;11524;-71
2021/11/07 06:46:10;;;;;;;;;25.25;24.00;;;;;9.01;76.37;102385.84;5038880;28;11594;-71
2021/11/07 06:49:10;;;;;;;;;26.75;26.75;;;;;9.08;74.57;102380.88;5038077;28;11496;-72
2021/11/07 06:52:06;;;;;;;;;25.75;25.75;;;;;9.34;73.56;102387.13;5038794;28;11420;-71
2021/11/07 06:55:04;;;;;;;;;24.00;23.50;;;;;9.47;73.66;102374.66;5036594;28;11513;-71
2021/11/07 06:57:59;;;;;;;;;24.50;24.50;;;;;9.31;71.69;102375.84;5031249;28;11489;-71
2021/11/07 07:00:55;;;;;;;;;18.75;18.75;;;;;9.38;71.84;102371.66;5042191;28;11466;-71
2021/11/07 07:03:51;;;;;;;;;23.50;23.50;;;;;9.50;72.21;102368.56;5050833;28;11443;-72
2021/11/07 07:06:59;;;;;;;;;21.00;21.00;;;;;9.65;72.67;102365.72;5051031;28;11500;-72
2021/11/07 07:10:07;;;;;;;;;21.75;21.75;;;;;9.60;71.43;102362.19;5034651;28;11501;-72
2021/11/07 07:13:23;;;;;;;;;26.50;26.50;;;;;9.40;71.46;102361.16;5053076;28;11487;-72
2021/11/07 07:19:34;;;;;;;;;26.00;24.75;;;;;9.69;71.52;102354.94;5054307;28;11458;-72
2021/11/07 07:32:26;;;;;;;;;24.00;24.00;;;;;10.86;67.72;102354.06;5054050;28;11325;-72
2021/11/07 07:35:26;;;;;;;;;20.50;20.50;;;;;10.93;67.81;102350.97;5040538;28;11485;-72
2021/11/07 07:38:22;;;;;;;;;24.50;24.50;;;;;10.97;67.22;102352.84;5053740;28;11611;-73
2021/11/07 07:41:18;;;;;;;;;18.50;18.50;;;;;10.93;67.62;102351.78;5053738;28;11011;-73
2021/11/07 07:44:14;;;;;;;;;24.75;24.25;;;;;10.99;67.93;102349.78;5053770;28;11839;-73
2021/11/07 07:47:10;;;;;;;;;23.75;23.75;;;;;11.04;67.08;102352.47;5055105;28;11188;-72
2021/11/07 07:50:06;;;;;;;;;23.75;22.50;;;;;11.11;66.38;102355.72;5055471;28;10960;-71
2021/11/07 07:53:02;;;;;;;;;25.50;25.50;;;;;11.20;65.49;102362.28;5040727;28;10648;-72
2021/11/07 07:55:57;;;;;;;;;24.00;24.00;;;;;11.43;65.95;102354.28;5040028;28;10985;-72
2021/11/07 07:58:53;;;;;;;;;23.00;21.50;;;;;11.40;65.34;102370.34;5053056;28;10697;-72
2021/11/07 08:01:51;;;;;;;;;27.50;27.50;;;;;11.79;64.26;102371.22;5050973;28;10927;-73
2021/11/07 08:04:47;;;;;;;;;21.50;21.50;;;;;12.11;64.12;102373.28;5053640;28;10785;-72
2021/11/07 08:07:43;;;;;;;;;26.50;25.50;;;;;11.80;65.10;102379.28;5039825;28;10702;-72
2021/11/07 08:10:39;;;;;;;;;25.00;24.00;;;;;12.05;63.68;102380.06;5033916;28;10685;-72
2021/11/07 08:13:35;;;;;;;;;22.50;22.50;;;;;12.46;62.97;102372.75;5047736;28;10720;-73
2021/11/07 08:16:31;;;;;;;;;20.75;20.75;;;;;12.55;62.42;102364.53;5053009;28;11277;-73
2021/11/07 08:19:27;;;;;;;;;15.00;15.00;;;;;12.66;61.61;102359.66;5051278;28;10750;-72
2021/11/07 08:22:22;;;;;;;;;16.75;16.75;;;;;13.03;61.42;102347.56;5052537;28;10283;-73
2021/11/07 08:25:22;;;;;;;;;17.50;17.50;;;;;13.16;60.97;102341.19;5052735;28;10216;-72
2021/11/07 08:28:20;;;;;;;;;16.50;16.50;;;;;13.59;61.65;102330.59;5052632;28;10311;-73
2021/11/07 08:31:22;;;;;;;;;17.75;17.25;;;;;13.65;61.20;102320.19;5052911;28;10016;-72
2021/11/07 08:34:23;;;;;;;;;19.25;19.00;;;;;13.77;59.39;102314.91;5039066;28;10020;-73
2021/11/07 08:37:27;;;;;;;;;21.00;20.25;;;;;14.05;59.89;102317.59;5053312;28;9916;-73
2021/11/07 08:40:42;;;;;;;;;12.75;12.75;;;;;14.19;57.79;102318.38;5052642;28;10002;-73
2021/11/07 09:09:17;;;;;;;;;13.67;12.67;;;;;15.33;51.68;102317.81;5054110;28;9260;-73
2021/11/07 09:12:13;;;;;;;;;11.33;11.00;;;;;15.35;53.88;102305.22;5064325;28;9489;-72
2021/11/07 09:15:09;;;;;;;;;13.00;12.00;;;;;15.65;50.02;102308.25;5054243;28;9009;-72
2021/11/07 09:18:06;;;;;;;;;10.33;10.33;;;;;15.29;49.89;102295.34;5054014;28;8909;-74
2021/11/07 09:24:06;;;;;;;;;11.00;11.00;;;;;15.93;49.56;102287.25;5053914;28;9107;-74
2021/11/07 09:27:09;;;;;;;;;10.50;10.50;;;;;15.95;49.07;102292.50;5053529;28;8871;-74
2021/11/07 09:45:43;;;;;;;;;12.00;10.50;;;;;17.18;46.30;102275.94;5024550;28;8871;-75
2021/11/07 09:48:42;;;;;;;;;13.25;13.25;;;;;16.86;45.66;102263.41;5040243;28;8824;-74
2021/11/07 09:51:38;;;;;;;;;12.75;12.75;;;;;16.79;47.16;102261.16;5053475;28;8854;-74
2021/11/07 09:54:35;;;;;;;;;8.75;8.75;;;;;16.40;47.49;102248.25;5052028;28;8844;-74
2021/11/07 09:57:32;;;;;;;;;12.00;10.25;;;;;16.58;47.41;102244.28;5038285;28;8848;-74
2021/11/07 10:00:42;;;;;;;;;12.00;11.50;;;;;16.63;46.99;102230.09;5052002;28;8851;-73
2021/11/07 10:03:43;;;;;;;;;9.50;9.50;;;;;16.86;46.77;102222.31;5051835;28;8824;-72
2021/11/07 10:06:45;;;;;;;;;8.75;8.75;;;;;16.53;46.54;102226.88;5051425;28;8859;-73
2021/11/07 10:09:42;;;;;;;;;8.00;8.00;;;;;16.85;46.74;102231.84;5051775;28;8843;-72
2021/11/07 10:12:43;;;;;;;;;8.50;8.50;;;;;16.57;46.95;102213.88;5051876;28;8867;-73
2021/11/07 10:18:46;;;;;;;;;9.75;9.75;;;;;17.09;46.71;102214.44;5051908;28;8853;-73
2021/11/07 10:21:50;;;;;;;;;11.75;11.75;;;;;16.96;47.02;102209.94;5051708;28;8840;-73
2021/11/07 10:24:55;;;;;;;;;10.00;10.00;;;;;17.12;45.94;102199.81;5038493;28;9541;-73
2021/11/07 10:27:54;;;;;;;;;9.25;8.50;;;;;17.26;45.98;102216.34;5051609;28;8836;-72
2021/11/07 10:31:27;;;;;;;;;9.00;9.00;;;;;16.74;46.94;102208.25;5051820;28;9627;-73
2021/11/07 10:34:48;;;;;;;;;8.00;8.00;;;;;16.84;45.88;102212.63;5053214;28;8867;-73
2021/11/07 10:38:00;;;;;;;;;12.75;12.75;;;;;17.06;45.49;102203.13;5051301;28;9593;-72
2021/11/07 10:41:09;;;;;;;;;8.50;8.25;;;;;16.67;45.93;102200.34;5053128;28;8843;-73
2021/11/07 10:54:25;;;;;;;;;10.25;10.25;;;;;16.88;46.95;102160.50;5056481;28;8843;-74
2021/11/07 10:57:25;;;;;;;;;8.75;8.75;;;;;16.91;46.43;102155.06;5056604;28;8816;-73
2021/11/07 11:00:30;;;;;;;;;12.00;12.00;;;;;16.76;47.23;102155.63;5055128;28;8863;-73
2021/11/07 11:03:26;;;;;;;;;14.75;14.75;;;;;16.55;47.92;102151.94;5055209;28;9557;-74
2021/11/07 11:06:22;;;;;;;;;6.75;6.75;;;;;16.51;47.09;102151.81;5054891;28;8844;-74
2021/11/07 11:09:19;;;;;;;;;14.50;14.25;;;;;16.77;46.69;102143.31;5055045;28;8823;-73
2021/11/07 11:12:17;;;;;;;;;6.25;6.25;;;;;17.28;46.74;102144.09;5056588;28;8828;-73
2021/11/07 11:15:23;;;;;;;;;11.00;11.00;;;;;17.29;46.89;102144.91;5054744;28;8933;-73
2021/11/07 11:18:44;;;;;;;;;13.75;13.75;;;;;17.24;46.90;102146.75;5054648;28;9021;-73
2021/11/07 11:28:32;;;;;;;;;11.00;11.00;;;;;18.04;44.92;102138.13;5055327;28;8824;-73
2021/11/07 11:31:37;;;;;;;;;8.00;8.00;;;;;17.88;43.34;102122.34;5049920;28;8962;-73
2021/11/07 11:35:09;;;;;;;;;11.75;11.75;;;;;18.07;43.39;102125.41;5039360;28;8851;-73
2021/11/07 11:38:03;;;;;;;;;15.00;15.00;;;;;17.14;44.39;102119.22;5055114;28;8855;-72
2021/11/07 11:41:18;;;;;;;;;11.50;11.50;;;;;17.35;44.17;102122.00;5053386;28;9529;-72
2021/11/07 11:44:16;;;;;;;;;8.50;8.50;;;;;17.43;43.54;102114.69;5048020;28;8909;-72
2021/11/07 11:54:01;;;;;;;;;9.00;9.00;;;;;17.22;43.86;102106.31;5049084;28;8932;-71
2021/11/07 12:03:58;;;;;;;;;12.50;12.50;;;;;17.58;43.50;102086.09;5051896;28;8843;-71
2021/11/07 12:07:10;;;;;;;;;10.25;10.25;;;;;17.46;43.93;102080.44;5038998;28;8830;-71
2021/11/07 12:10:33;;;;;;;;;9.75;9.75;;;;;17.42;43.09;102079.50;5047698;28;8924;-71
2021/11/07 12:13:45;;;;;;;;;8.50;8.50;;;;;17.22;43.84;102069.97;5054017;28;8813;-71
2021/11/07 12:16:47;;;;;;;;;8.50;8.50;;;;;17.35;43.43;102060.47;5053603;28;8836;-72
2021/11/07 12:19:44;;;;;;;;;7.50;7.50;;;;;17.04;43.62;102063.72;5047712;28;8845;-71
2021/11/07 12:22:40;;;;;;;;;8.25;8.25;;;;;16.95;43.58;102057.41;5050187;28;8851;-72
2021/11/07 12:25:35;;;;;;;;;6.25;6.25;;;;;16.81;43.79;102059.66;5050257;28;8821;-71
2021/11/07 12:28:43;;;;;;;;;8.50;8.50;;;;;16.72;43.20;102054.13;5049491;28;8844;-72
2021/11/07 12:31:58;;;;;;;;;9.75;9.25;;;;;16.63;43.22;102053.31;5050428;28;8901;-72
2021/11/07 12:35:06;;;;;;;;;7.25;7.00;;;;;16.40;43.74;102067.56;5051836;28;8847;-73
2021/11/07 12:41:38;;;;;;;;;7.50;7.50;;;;;16.06;44.04;102051.03;5051999;28;8832;-71
2021/11/07 12:44:34;;;;;;;;;8.00;8.00;;;;;15.89;44.27;102056.69;5052150;28;9577;-72
2021/11/07 12:47:49;;;;;;;;;6.67;6.67;;;;;15.21;45.50;102071.22;5050981;28;8899;-71
2021/11/07 12:50:55;;;;;;;;;8.00;8.00;;;;;15.20;46.00;102074.34;5048486;28;9001;-72
2021/11/07 12:54:09;;;;;;;;;10.33;10.33;;;;;15.14;46.21;102076.47;5039757;28;9073;-71
2021/11/07 12:57:19;;;;;;;;;7.00;7.00;;;;;15.20;46.26;102079.91;5052742;28;9089;-71
2021/11/07 13:00:17;;;;;;;;;9.00;9.00;;;;;14.82;46.45;102068.59;5051168;28;9085;-71
2021/11/07 13:03:15;;;;;;;;;6.00;6.00;;;;;14.83;46.51;102073.03;5037490;28;9242;-71
2021/11/07 13:06:11;;;;;;;;;12.00;11.00;;;;;14.71;47.18;102070.88;5050579;28;9003;-71
2021/11/07 13:09:07;;;;;;;;;8.50;8.50;;;;;14.56;47.73;102079.69;5040142;28;9362;-72
2021/11/07 13:25:10;;;;;;;;;20.50;19.50;;;;;14.36;50.51;102051.28;5047056;28;9721;-72
2021/11/07 13:28:37;;;;;;;;;11.25;11.25;;;;;14.21;50.59;102043.41;5050262;28;9600;-71
2021/11/07 13:31:46;;;;;;;;;12.75;12.75;;;;;14.07;51.45;102046.28;5050634;28;9431;-72
2021/11/07 13:35:31;;;;;;;;;16.00;16.00;;;;;14.02;52.06;102029.72;5034148;28;9733;-72
2021/11/07 13:38:29;;;;;;;;;16.75;16.25;;;;;13.92;52.46;102024.47;4968417;28;9931;-71
2021/11/07 13:41:32;;;;;;;;;15.75;15.75;;;;;13.70;52.99;102019.78;5046575;28;10171;-72
2021/11/07 13:44:16;;;;;;;;;18.75;17.25;;;;;13.62;53.75;102006.66;5034361;28;9621;-70
2021/11/07 13:47:22;;;;;;;;;17.50;17.50;;;;;13.37;54.09;102008.19;4988918;28;9863;-78
2021/11/07 13:50:21;;;;;;;;;;;;;;;;;;;;;
2021/11/07 13:52:52;;;;;;;;;14.25;14.25;;;;;13.23;55.11;102001.88;5046131;28;9882;-76
2021/11/07 13:55:33;;;;;;;;;21.75;20.25;;;;;13.18;55.60;101999.19;5045837;28;9968;-71
2021/11/07 13:58:33;;;;;;;;;23.25;21.50;;;;;13.13;56.06;101999.34;5049548;28;10310;-71
2021/11/07 14:01:12;;;;;;;;;23.75;23.00;;;;;13.05;56.78;102003.69;5051543;28;10270;-71
2021/11/07 14:03:43;;;;;;;;;19.75;19.75;;;;;12.92;57.36;102002.59;5052610;28;10389;-72
2021/11/07 14:06:39;;;;;;;;;23.00;21.50;;;;;12.94;57.44;101992.00;5051122;28;10960;-72
2021/11/07 14:09:34;;;;;;;;;25.25;25.25;;;;;12.85;58.32;101996.66;5038490;28;10335;-70
2021/11/07 14:12:35;;;;;;;;;24.75;24.25;;;;;12.71;59.27;101984.78;5051570;28;10384;-70
2021/11/07 14:15:35;;;;;;;;;10.75;9.75;;;;;12.60;59.68;101978.66;5051632;28;10512;-71
2021/11/07 14:18:27;;;;;;;;;23.50;23.50;;;;;12.39;60.27;101978.31;5055177;28;10621;-72
2021/11/07 14:21:26;;;;;;;;;22.25;20.50;;;;;12.35;60.34;101977.31;5055288;28;10697;-71
2021/11/07 14:24:31;;;;;;;;;25.50;25.00;;;;;12.25;60.90;101980.28;5041763;28;10608;-70
2021/11/07 14:27:07;;;;;;;;;25.75;24.75;;;;;12.23;61.07;101977.84;5052915;28;10486;-70
2021/11/07 14:29:40;;;;;;;;;18.25;18.25;;;;;12.34;60.90;101977.59;5055553;28;10671;-70
2021/11/07 14:35:22;;;;;;;;;21.75;21.75;;;;;11.92;62.95;101960.22;5049781;28;10459;-72
2021/11/07 14:38:24;;;;;;;;;21.00;21.00;;;;;11.84;63.29;101963.69;5052082;28;11536;-71
2021/11/07 14:41:05;;;;;;;;;23.50;23.50;;;;;11.82;63.65;101969.56;5054798;28;10666;-70
2021/11/07 14:46:58;;;;;;;;;26.25;26.00;;;;;12.09;63.54;101962.34;5055336;28;10990;-70
2021/11/07 14:50:03;;;;;;;;;27.75;27.75;;;;;11.72;64.23;101952.25;5024741;28;10712;-71
2021/11/07 14:55:49;;;;;;;;;41.25;38.00;;;;;11.64;64.36;101946.31;5055538;28;10911;-71
2021/11/07 15:01:29;;;;;;;;;40.50;36.25;;;;;11.51;64.88;101946.31;5054741;28;11589;-72
2021/11/07 15:04:47;;;;;;;;;52.25;45.00;;;;;11.65;65.03;101928.56;5055074;28;11483;-71
2021/11/07 15:07:38;;;;;;;;;59.75;46.50;;;;;11.47;65.32;101925.88;5024475;28;12300;-72
2021/11/07 15:16:37;;;;;;;;;62.25;50.75;;;;;11.11;66.95;101930.13;5054291;28;11521;-71
2021/11/07 15:19:47;;;;;;;;;61.50;50.25;;;;;11.09;66.95;101926.03;5055456;28;11551;-72
2021/11/07 15:22:45;;;;;;;;;61.00;51.50;;;;;11.07;67.12;101920.00;5037390;28;11712;-73
2021/11/07 15:25:31;;;;;;;;;62.00;51.25;;;;;10.99;67.49;101931.78;5053876;28;11727;-71
2021/11/07 15:28:15;;;;;;;;;64.75;54.25;;;;;10.98;67.63;101925.41;5053840;28;11615;-72
2021/11/07 15:30:43;;;;;;;;;67.00;53.75;;;;;10.91;67.83;101926.94;5055403;28;11713;-70
2021/11/07 15:33:43;;;;;;;;;64.75;53.75;;;;;10.81;68.42;101925.97;5055313;28;11569;-72
2021/11/07 15:36:40;;;;;;;;;78.00;61.75;;;;;10.68;69.02;101928.69;5054519;28;11561;-72
2021/11/07 15:39:46;;;;;;;;;79.75;60.75;;;;;10.60;69.16;101921.09;5041837;28;11728;-72
2021/11/07 15:42:46;;;;;;;;;81.25;64.00;;;;;10.58;69.10;101913.91;5053933;28;11536;-72
2021/11/07 15:45:55;;;;;;;;;80.75;63.25;;;;;10.59;68.90;101909.19;5036279;28;11589;-71
2021/11/07 15:48:54;;;;;;;;;87.25;67.50;;;;;10.54;69.65;101912.03;5035708;28;11555;-69
2021/11/07 15:51:35;;;;;;;;;85.00;69.75;;;;;10.46;69.33;101905.25;5035130;28;11650;-70
2021/11/07 15:54:33;;;;;;;;;87.75;74.25;;;;;10.35;69.48;101909.28;5040598;28;11583;-69
2021/11/07 15:57:33;;;;;;;;;87.25;70.50;;;;;10.51;69.32;101921.75;5053395;28;11719;-69
2021/11/07 16:00:35;;;;;;;;;88.00;78.25;;;;;10.24;69.77;101916.91;5053333;28;11606;-69
2021/11/07 16:03:40;;;;;;;;;87.50;72.25;;;;;10.04;71.00;101908.84;5044704;28;12325;-69
2021/11/07 16:17:48;;;;;;;;;90.50;72.00;;;;;10.01;71.60;101918.56;4999638;28;12395;-69
2021/11/07 16:20:21;;;;;;;;;88.00;72.25;;;;;9.75;72.40;101918.09;5054791;28;11558;-70
2021/11/07 16:22:57;;;;;;;;;96.00;85.67;;;;;9.69;72.77;101901.88;5036809;28;11567;-69
2021/11/07 16:25:53;;;;;;;;;96.33;87.00;;;;;9.68;73.18;101908.53;5052234;28;8827;-69
2021/11/07 16:28:49;;;;;;;;;94.33;81.33;;;;;9.60;73.39;101918.28;5053010;28;8836;-69
2021/11/07 16:31:20;;;;;;;;;93.67;87.00;;;;;9.70;73.00;101909.84;5054191;28;8821;-69